sensor_id;sensor_type;location;lat;lon;timestamp;P1;durP1;ratioP1;P2;durP2;ratioP2
2766;SDS011;1391;46.742;11.636;2022-09-09T00:00:55;3.13;;;0.73;;
2766;SDS011;1391;46.742;11.636;2022-09-09T00:03:33;4.57;;;1.20;;
2766;SDS011;1391;46.742;11.636;2022-09-09T00:06:08;2.83;;;0.90;;
2766;SDS011;1391;46.742;11.636;2022-09-09T00:08:56;5.60;;;0.90;;
2766;SDS011;1391;46.742;11.636;2022-09-09T00:11:29;3.63;;;0.90;;
2766;SDS011;1391;46.742;11.636;2022-09-09T00:14:03;6.07;;;1.00;;
2766;SDS011;1391;46.742;11.636;2022-09-09T00:16:46;1.10;;;0.80;;
2766;SDS011;1391;46.742;11.636;2022-09-09T00:19:22;3.80;;;0.80;;
2766;SDS011;1391;46.742;11.636;2022-09-09T00:21:58;3.07;;;1.03;;
2766;SDS011;1391;46.742;11.636;2022-09-09T00:24:41;1.97;;;0.80;;
2766;SDS011;1391;46.742;11.636;2022-09-09T00:27:13;1.50;;;0.70;;
2766;SDS011;1391;46.742;11.636;2022-09-09T00:29:51;1.50;;;0.90;;
2766;SDS011;1391;46.742;11.636;2022-09-09T00:32:21;4.07;;;0.80;;
2766;SDS011;1391;46.742;11.636;2022-09-09T00:34:55;1.67;;;0.70;;
2766;SDS011;1391;46.742;11.636;2022-09-09T00:37:26;5.53;;;1.03;;
2766;SDS011;1391;46.742;11.636;2022-09-09T00:39:57;4.07;;;0.83;;
2766;SDS011;1391;46.742;11.636;2022-09-09T00:42:31;4.03;;;0.90;;
2766;SDS011;1391;46.742;11.636;2022-09-09T00:45:11;5.27;;;0.80;;
2766;SDS011;1391;46.742;11.636;2022-09-09T00:48:02;2.87;;;0.80;;
2766;SDS011;1391;46.742;11.636;2022-09-09T00:50:42;2.57;;;0.70;;
2766;SDS011;1391;46.742;11.636;2022-09-09T00:53:29;2.53;;;0.90;;
2766;SDS011;1391;46.742;11.636;2022-09-09T00:56:06;3.37;;;0.90;;
2766;SDS011;1391;46.742;11.636;2022-09-09T00:58:40;1.70;;;0.80;;
2766;SDS011;1391;46.742;11.636;2022-09-09T01:01:10;2.70;;;0.87;;
2766;SDS011;1391;46.742;11.636;2022-09-09T01:03:39;3.67;;;0.93;;
2766;SDS011;1391;46.742;11.636;2022-09-09T01:06:19;3.63;;;1.00;;
2766;SDS011;1391;46.742;11.636;2022-09-09T01:09:05;1.13;;;0.80;;
2766;SDS011;1391;46.742;11.636;2022-09-09T01:11:43;1.07;;;0.70;;
2766;SDS011;1391;46.742;11.636;2022-09-09T01:14:29;2.63;;;0.70;;
2766;SDS011;1391;46.742;11.636;2022-09-09T01:17:12;1.53;;;0.67;;
2766;SDS011;1391;46.742;11.636;2022-09-09T01:19:49;1.37;;;0.80;;
2766;SDS011;1391;46.742;11.636;2022-09-09T01:22:32;2.33;;;0.60;;
2766;SDS011;1391;46.742;11.636;2022-09-09T01:25:20;2.50;;;0.70;;
2766;SDS011;1391;46.742;11.636;2022-09-09T01:27:56;2.83;;;0.70;;
2766;SDS011;1391;46.742;11.636;2022-09-09T01:30:28;2.23;;;0.70;;
2766;SDS011;1391;46.742;11.636;2022-09-09T01:32:56;3.50;;;0.70;;
2766;SDS011;1391;46.742;11.636;2022-09-09T01:35:37;4.47;;;0.90;;
2766;SDS011;1391;46.742;11.636;2022-09-09T01:38:11;1.57;;;0.77;;
2766;SDS011;1391;46.742;11.636;2022-09-09T01:40:39;0.90;;;0.90;;
2766;SDS011;1391;46.742;11.636;2022-09-09T01:43:08;1.83;;;0.70;;
2766;SDS011;1391;46.742;11.636;2022-09-09T01:45:35;3.33;;;0.80;;
2766;SDS011;1391;46.742;11.636;2022-09-09T01:48:03;0.87;;;0.63;;
2766;SDS011;1391;46.742;11.636;2022-09-09T01:50:31;1.30;;;0.80;;
2766;SDS011;1391;46.742;11.636;2022-09-09T01:52:59;1.03;;;0.87;;
2766;SDS011;1391;46.742;11.636;2022-09-09T01:55:29;1.60;;;0.80;;
2766;SDS011;1391;46.742;11.636;2022-09-09T01:58:02;0.70;;;0.70;;
2766;SDS011;1391;46.742;11.636;2022-09-09T02:00:41;3.17;;;0.87;;
2766;SDS011;1391;46.742;11.636;2022-09-09T02:03:19;1.00;;;0.80;;
2766;SDS011;1391;46.742;11.636;2022-09-09T02:05:52;0.83;;;0.83;;
2766;SDS011;1391;46.742;11.636;2022-09-09T02:08:33;3.40;;;0.77;;
2766;SDS011;1391;46.742;11.636;2022-09-09T02:11:09;6.80;;;1.03;;
2766;SDS011;1391;46.742;11.636;2022-09-09T02:13:43;2.43;;;1.00;;
2766;SDS011;1391;46.742;11.636;2022-09-09T02:16:12;2.17;;;1.10;;
2766;SDS011;1391;46.742;11.636;2022-09-09T02:18:53;1.17;;;0.80;;
2766;SDS011;1391;46.742;11.636;2022-09-09T02:21:27;2.27;;;1.00;;
2766;SDS011;1391;46.742;11.636;2022-09-09T02:23:57;1.67;;;0.80;;
2766;SDS011;1391;46.742;11.636;2022-09-09T02:26:29;3.13;;;1.13;;
2766;SDS011;1391;46.742;11.636;2022-09-09T02:29:01;3.40;;;1.00;;
2766;SDS011;1391;46.742;11.636;2022-09-09T02:31:34;4.07;;;1.10;;
2766;SDS011;1391;46.742;11.636;2022-09-09T02:34:03;2.47;;;0.97;;
2766;SDS011;1391;46.742;11.636;2022-09-09T02:36:34;0.70;;;0.60;;
2766;SDS011;1391;46.742;11.636;2022-09-09T02:39:04;2.00;;;0.87;;
2766;SDS011;1391;46.742;11.636;2022-09-09T02:41:35;2.13;;;0.80;;
2766;SDS011;1391;46.742;11.636;2022-09-09T02:44:08;1.67;;;0.80;;
2766;SDS011;1391;46.742;11.636;2022-09-09T02:46:45;3.97;;;0.80;;
2766;SDS011;1391;46.742;11.636;2022-09-09T02:49:35;3.63;;;0.73;;
2766;SDS011;1391;46.742;11.636;2022-09-09T02:52:11;3.83;;;0.93;;
2766;SDS011;1391;46.742;11.636;2022-09-09T02:54:41;2.27;;;0.80;;
2766;SDS011;1391;46.742;11.636;2022-09-09T02:57:10;0.80;;;0.80;;
2766;SDS011;1391;46.742;11.636;2022-09-09T02:59:42;0.80;;;0.73;;
2766;SDS011;1391;46.742;11.636;2022-09-09T03:02:11;0.80;;;0.80;;
2766;SDS011;1391;46.742;11.636;2022-09-09T03:04:38;2.90;;;0.77;;
2766;SDS011;1391;46.742;11.636;2022-09-09T03:07:08;3.23;;;1.00;;
2766;SDS011;1391;46.742;11.636;2022-09-09T03:09:35;1.67;;;0.70;;
2766;SDS011;1391;46.742;11.636;2022-09-09T03:12:02;2.97;;;0.97;;
2766;SDS011;1391;46.742;11.636;2022-09-09T03:14:30;6.50;;;1.10;;
2766;SDS011;1391;46.742;11.636;2022-09-09T03:16:58;2.40;;;0.80;;
2766;SDS011;1391;46.742;11.636;2022-09-09T03:19:27;1.53;;;0.90;;
2766;SDS011;1391;46.742;11.636;2022-09-09T03:21:55;1.87;;;0.80;;
2766;SDS011;1391;46.742;11.636;2022-09-09T03:24:22;2.47;;;1.10;;
2766;SDS011;1391;46.742;11.636;2022-09-09T03:26:49;1.50;;;0.90;;
2766;SDS011;1391;46.742;11.636;2022-09-09T03:29:17;2.83;;;1.10;;
2766;SDS011;1391;46.742;11.636;2022-09-09T03:31:44;5.00;;;1.40;;
2766;SDS011;1391;46.742;11.636;2022-09-09T03:34:13;3.13;;;1.00;;
2766;SDS011;1391;46.742;11.636;2022-09-09T03:36:40;3.33;;;1.30;;
2766;SDS011;1391;46.742;11.636;2022-09-09T03:39:07;1.37;;;0.97;;
2766;SDS011;1391;46.742;11.636;2022-09-09T03:41:34;2.80;;;1.10;;
2766;SDS011;1391;46.742;11.636;2022-09-09T03:44:02;4.90;;;1.27;;
2766;SDS011;1391;46.742;11.636;2022-09-09T03:46:29;1.93;;;0.93;;
2766;SDS011;1391;46.742;11.636;2022-09-09T03:48:57;4.27;;;1.03;;
2766;SDS011;1391;46.742;11.636;2022-09-09T03:51:25;2.53;;;1.00;;
2766;SDS011;1391;46.742;11.636;2022-09-09T03:53:53;2.03;;;1.07;;
2766;SDS011;1391;46.742;11.636;2022-09-09T03:56:21;1.70;;;1.10;;
2766;SDS011;1391;46.742;11.636;2022-09-09T03:58:49;3.50;;;1.10;;
2766;SDS011;1391;46.742;11.636;2022-09-09T04:01:16;2.20;;;0.97;;
2766;SDS011;1391;46.742;11.636;2022-09-09T04:03:43;0.90;;;0.90;;
2766;SDS011;1391;46.742;11.636;2022-09-09T04:06:12;1.33;;;0.90;;
2766;SDS011;1391;46.742;11.636;2022-09-09T04:08:42;3.07;;;1.00;;
2766;SDS011;1391;46.742;11.636;2022-09-09T04:11:10;1.40;;;1.13;;
2766;SDS011;1391;46.742;11.636;2022-09-09T04:13:37;3.37;;;1.00;;
2766;SDS011;1391;46.742;11.636;2022-09-09T04:16:05;5.47;;;1.10;;
2766;SDS011;1391;46.742;11.636;2022-09-09T04:18:33;4.60;;;1.77;;
2766;SDS011;1391;46.742;11.636;2022-09-09T04:21:00;2.87;;;1.07;;
2766;SDS011;1391;46.742;11.636;2022-09-09T04:23:28;1.73;;;1.10;;
2766;SDS011;1391;46.742;11.636;2022-09-09T04:25:57;2.40;;;0.93;;
2766;SDS011;1391;46.742;11.636;2022-09-09T04:28:27;2.10;;;1.00;;
2766;SDS011;1391;46.742;11.636;2022-09-09T04:30:56;1.90;;;0.93;;
2766;SDS011;1391;46.742;11.636;2022-09-09T04:33:30;3.23;;;1.00;;
2766;SDS011;1391;46.742;11.636;2022-09-09T04:35:57;4.33;;;1.10;;
2766;SDS011;1391;46.742;11.636;2022-09-09T04:38:25;1.53;;;1.33;;
2766;SDS011;1391;46.742;11.636;2022-09-09T04:40:52;4.07;;;1.60;;
2766;SDS011;1391;46.742;11.636;2022-09-09T04:43:21;1.43;;;1.27;;
2766;SDS011;1391;46.742;11.636;2022-09-09T04:45:51;2.43;;;1.37;;
2766;SDS011;1391;46.742;11.636;2022-09-09T04:48:19;3.67;;;1.50;;
2766;SDS011;1391;46.742;11.636;2022-09-09T04:50:53;3.83;;;1.20;;
2766;SDS011;1391;46.742;11.636;2022-09-09T04:53:22;1.47;;;1.10;;
2766;SDS011;1391;46.742;11.636;2022-09-09T04:55:50;6.63;;;2.17;;
2766;SDS011;1391;46.742;11.636;2022-09-09T04:58:17;1.77;;;1.03;;
2766;SDS011;1391;46.742;11.636;2022-09-09T05:00:48;3.10;;;1.30;;
2766;SDS011;1391;46.742;11.636;2022-09-09T05:03:15;4.17;;;1.40;;
2766;SDS011;1391;46.742;11.636;2022-09-09T05:05:43;3.37;;;1.17;;
2766;SDS011;1391;46.742;11.636;2022-09-09T05:08:10;11.70;;;1.43;;
2766;SDS011;1391;46.742;11.636;2022-09-09T05:10:38;5.40;;;1.30;;
2766;SDS011;1391;46.742;11.636;2022-09-09T05:13:07;1.30;;;1.20;;
2766;SDS011;1391;46.742;11.636;2022-09-09T05:15:34;2.13;;;1.30;;
2766;SDS011;1391;46.742;11.636;2022-09-09T05:18:02;1.97;;;1.13;;
2766;SDS011;1391;46.742;11.636;2022-09-09T05:20:30;2.17;;;1.00;;
2766;SDS011;1391;46.742;11.636;2022-09-09T05:22:57;6.23;;;1.33;;
2766;SDS011;1391;46.742;11.636;2022-09-09T05:25:24;1.97;;;1.20;;
2766;SDS011;1391;46.742;11.636;2022-09-09T05:27:52;4.80;;;1.40;;
2766;SDS011;1391;46.742;11.636;2022-09-09T05:30:20;2.63;;;1.10;;
2766;SDS011;1391;46.742;11.636;2022-09-09T05:32:49;3.67;;;1.33;;
2766;SDS011;1391;46.742;11.636;2022-09-09T05:35:18;3.43;;;1.23;;
2766;SDS011;1391;46.742;11.636;2022-09-09T05:37:45;3.70;;;1.30;;
2766;SDS011;1391;46.742;11.636;2022-09-09T05:40:13;2.63;;;1.10;;
2766;SDS011;1391;46.742;11.636;2022-09-09T05:42:40;2.07;;;1.20;;
2766;SDS011;1391;46.742;11.636;2022-09-09T05:45:08;1.37;;;0.93;;
2766;SDS011;1391;46.742;11.636;2022-09-09T05:47:36;3.70;;;0.97;;
2766;SDS011;1391;46.742;11.636;2022-09-09T05:50:04;3.77;;;1.00;;
2766;SDS011;1391;46.742;11.636;2022-09-09T05:52:33;2.83;;;0.90;;
2766;SDS011;1391;46.742;11.636;2022-09-09T05:55:00;1.60;;;1.10;;
2766;SDS011;1391;46.742;11.636;2022-09-09T05:57:29;1.00;;;0.90;;
2766;SDS011;1391;46.742;11.636;2022-09-09T05:59:56;1.33;;;1.00;;
2766;SDS011;1391;46.742;11.636;2022-09-09T06:02:24;4.73;;;1.20;;
2766;SDS011;1391;46.742;11.636;2022-09-09T06:04:51;1.90;;;0.90;;
2766;SDS011;1391;46.742;11.636;2022-09-09T06:07:19;3.67;;;1.43;;
2766;SDS011;1391;46.742;11.636;2022-09-09T06:09:48;1.97;;;1.40;;
2766;SDS011;1391;46.742;11.636;2022-09-09T06:12:16;4.73;;;1.00;;
2766;SDS011;1391;46.742;11.636;2022-09-09T06:14:43;1.30;;;1.17;;
2766;SDS011;1391;46.742;11.636;2022-09-09T06:17:11;1.33;;;1.00;;
2766;SDS011;1391;46.742;11.636;2022-09-09T06:19:38;1.20;;;0.90;;
2766;SDS011;1391;46.742;11.636;2022-09-09T06:22:05;8.77;;;1.20;;
2766;SDS011;1391;46.742;11.636;2022-09-09T06:24:32;6.47;;;1.03;;
2766;SDS011;1391;46.742;11.636;2022-09-09T06:27:01;1.97;;;1.20;;
2766;SDS011;1391;46.742;11.636;2022-09-09T06:29:28;2.97;;;1.27;;
2766;SDS011;1391;46.742;11.636;2022-09-09T06:31:56;1.60;;;1.07;;
2766;SDS011;1391;46.742;11.636;2022-09-09T06:34:23;1.87;;;1.00;;
2766;SDS011;1391;46.742;11.636;2022-09-09T06:36:51;3.50;;;1.00;;
2766;SDS011;1391;46.742;11.636;2022-09-09T06:39:18;3.87;;;1.30;;
2766;SDS011;1391;46.742;11.636;2022-09-09T06:41:45;2.67;;;1.03;;
2766;SDS011;1391;46.742;11.636;2022-09-09T06:44:15;1.23;;;0.93;;
2766;SDS011;1391;46.742;11.636;2022-09-09T06:46:42;3.77;;;1.27;;
2766;SDS011;1391;46.742;11.636;2022-09-09T06:49:09;3.40;;;0.90;;
2766;SDS011;1391;46.742;11.636;2022-09-09T06:51:37;2.70;;;1.20;;
2766;SDS011;1391;46.742;11.636;2022-09-09T06:54:07;1.50;;;1.00;;
2766;SDS011;1391;46.742;11.636;2022-09-09T06:56:35;3.10;;;1.17;;
2766;SDS011;1391;46.742;11.636;2022-09-09T06:59:05;3.23;;;1.03;;
2766;SDS011;1391;46.742;11.636;2022-09-09T07:01:36;2.27;;;1.50;;
2766;SDS011;1391;46.742;11.636;2022-09-09T07:34:59;3.67;;;1.10;;
2766;SDS011;1391;46.742;11.636;2022-09-09T07:37:26;6.37;;;0.90;;
2766;SDS011;1391;46.742;11.636;2022-09-09T07:39:53;1.37;;;0.90;;
2766;SDS011;1391;46.742;11.636;2022-09-09T07:42:21;6.33;;;1.50;;
2766;SDS011;1391;46.742;11.636;2022-09-09T07:44:48;1.00;;;0.90;;
2766;SDS011;1391;46.742;11.636;2022-09-09T07:47:19;3.00;;;1.60;;
2766;SDS011;1391;46.742;11.636;2022-09-09T07:49:47;2.83;;;0.83;;
2766;SDS011;1391;46.742;11.636;2022-09-09T07:52:16;1.30;;;1.20;;
2766;SDS011;1391;46.742;11.636;2022-09-09T07:54:45;3.47;;;1.10;;
2766;SDS011;1391;46.742;11.636;2022-09-09T07:57:12;2.77;;;0.87;;
2766;SDS011;1391;46.742;11.636;2022-09-09T07:59:40;3.53;;;1.00;;
2766;SDS011;1391;46.742;11.636;2022-09-09T08:02:08;0.83;;;0.83;;
2766;SDS011;1391;46.742;11.636;2022-09-09T08:04:36;1.40;;;0.93;;
2766;SDS011;1391;46.742;11.636;2022-09-09T08:07:03;1.63;;;0.90;;
2766;SDS011;1391;46.742;11.636;2022-09-09T08:09:32;2.23;;;0.93;;
2766;SDS011;1391;46.742;11.636;2022-09-09T08:12:00;2.87;;;1.10;;
2766;SDS011;1391;46.742;11.636;2022-09-09T08:14:27;8.87;;;1.20;;
2766;SDS011;1391;46.742;11.636;2022-09-09T08:16:54;2.57;;;1.57;;
2766;SDS011;1391;46.742;11.636;2022-09-09T08:19:22;10.17;;;1.10;;
2766;SDS011;1391;46.742;11.636;2022-09-09T08:21:49;1.47;;;0.67;;
2766;SDS011;1391;46.742;11.636;2022-09-09T08:24:17;0.90;;;0.73;;
2766;SDS011;1391;46.742;11.636;2022-09-09T08:26:47;3.13;;;1.03;;
2766;SDS011;1391;46.742;11.636;2022-09-09T08:29:16;3.93;;;0.70;;
2766;SDS011;1391;46.742;11.636;2022-09-09T08:31:44;1.60;;;1.03;;
2766;SDS011;1391;46.742;11.636;2022-09-09T08:34:13;2.70;;;0.93;;
2766;SDS011;1391;46.742;11.636;2022-09-09T08:36:41;2.47;;;0.70;;
2766;SDS011;1391;46.742;11.636;2022-09-09T08:39:11;1.10;;;0.70;;
2766;SDS011;1391;46.742;11.636;2022-09-09T08:44:50;4.03;;;0.60;;
2766;SDS011;1391;46.742;11.636;2022-09-09T08:47:33;0.83;;;0.60;;
2766;SDS011;1391;46.742;11.636;2022-09-09T08:50:16;1.57;;;0.67;;
2766;SDS011;1391;46.742;11.636;2022-09-09T08:52:51;0.77;;;0.53;;
2766;SDS011;1391;46.742;11.636;2022-09-09T08:55:25;2.03;;;0.63;;
2766;SDS011;1391;46.742;11.636;2022-09-09T08:58:05;1.87;;;0.73;;
2766;SDS011;1391;46.742;11.636;2022-09-09T09:00:41;0.73;;;0.50;;
2766;SDS011;1391;46.742;11.636;2022-09-09T09:03:25;2.57;;;0.70;;
2766;SDS011;1391;46.742;11.636;2022-09-09T09:06:04;4.80;;;0.67;;
2766;SDS011;1391;46.742;11.636;2022-09-09T09:08:43;0.97;;;0.43;;
2766;SDS011;1391;46.742;11.636;2022-09-09T09:11:18;0.40;;;0.40;;
2766;SDS011;1391;46.742;11.636;2022-09-09T09:13:50;2.73;;;0.70;;
2766;SDS011;1391;46.742;11.636;2022-09-09T09:16:23;3.37;;;0.60;;
2766;SDS011;1391;46.742;11.636;2022-09-09T09:18:58;3.73;;;0.70;;
2766;SDS011;1391;46.742;11.636;2022-09-09T09:21:29;1.40;;;0.60;;
2766;SDS011;1391;46.742;11.636;2022-09-09T09:24:04;2.17;;;0.90;;
2766;SDS011;1391;46.742;11.636;2022-09-09T09:26:41;1.83;;;0.67;;
2766;SDS011;1391;46.742;11.636;2022-09-09T09:29:12;3.53;;;1.00;;
2766;SDS011;1391;46.742;11.636;2022-09-09T09:31:43;2.60;;;0.70;;
2766;SDS011;1391;46.742;11.636;2022-09-09T09:34:16;1.30;;;0.67;;
2766;SDS011;1391;46.742;11.636;2022-09-09T09:36:44;2.90;;;0.93;;
2766;SDS011;1391;46.742;11.636;2022-09-09T09:39:22;0.90;;;0.70;;
2766;SDS011;1391;46.742;11.636;2022-09-09T09:41:52;3.97;;;1.00;;
2766;SDS011;1391;46.742;11.636;2022-09-09T09:44:25;3.57;;;1.00;;
2766;SDS011;1391;46.742;11.636;2022-09-09T09:47:05;1.70;;;0.90;;
2766;SDS011;1391;46.742;11.636;2022-09-09T09:49:33;1.83;;;1.00;;
2766;SDS011;1391;46.742;11.636;2022-09-09T09:52:01;0.97;;;0.90;;
2766;SDS011;1391;46.742;11.636;2022-09-09T09:54:29;2.03;;;1.10;;
2766;SDS011;1391;46.742;11.636;2022-09-09T09:57:07;4.10;;;1.30;;
2766;SDS011;1391;46.742;11.636;2022-09-09T09:59:38;1.60;;;0.90;;
2766;SDS011;1391;46.742;11.636;2022-09-09T10:02:11;1.77;;;0.93;;
2766;SDS011;1391;46.742;11.636;2022-09-09T10:04:42;2.27;;;1.07;;
2766;SDS011;1391;46.742;11.636;2022-09-09T10:07:11;9.03;;;2.63;;
2766;SDS011;1391;46.742;11.636;2022-09-09T10:09:39;4.67;;;1.43;;
2766;SDS011;1391;46.742;11.636;2022-09-09T10:12:11;5.33;;;1.70;;
2766;SDS011;1391;46.742;11.636;2022-09-09T10:14:50;4.77;;;1.10;;
2766;SDS011;1391;46.742;11.636;2022-09-09T10:17:28;8.00;;;1.37;;
2766;SDS011;1391;46.742;11.636;2022-09-09T10:20:12;1.73;;;1.07;;
2766;SDS011;1391;46.742;11.636;2022-09-09T10:22:56;7.30;;;1.50;;
2766;SDS011;1391;46.742;11.636;2022-09-09T10:25:38;2.00;;;1.00;;
2766;SDS011;1391;46.742;11.636;2022-09-09T10:28:32;2.40;;;1.10;;
2766;SDS011;1391;46.742;11.636;2022-09-09T10:31:19;5.67;;;1.20;;
2766;SDS011;1391;46.742;11.636;2022-09-09T10:33:56;4.33;;;1.23;;
2766;SDS011;1391;46.742;11.636;2022-09-09T10:36:32;2.07;;;1.40;;
2766;SDS011;1391;46.742;11.636;2022-09-09T10:39:01;2.97;;;1.60;;
2766;SDS011;1391;46.742;11.636;2022-09-09T10:41:35;2.40;;;1.33;;
2766;SDS011;1391;46.742;11.636;2022-09-09T10:44:24;2.97;;;1.33;;
2766;SDS011;1391;46.742;11.636;2022-09-09T10:50:48;1.10;;;0.77;;
2766;SDS011;1391;46.742;11.636;2022-09-09T10:53:24;2.23;;;1.17;;
2766;SDS011;1391;46.742;11.636;2022-09-09T10:56:03;2.93;;;1.13;;
2766;SDS011;1391;46.742;11.636;2022-09-09T10:58:37;1.97;;;1.00;;
2766;SDS011;1391;46.742;11.636;2022-09-09T11:01:13;2.47;;;1.10;;
2766;SDS011;1391;46.742;11.636;2022-09-09T11:03:47;2.50;;;1.10;;
2766;SDS011;1391;46.742;11.636;2022-09-09T11:06:21;2.07;;;1.10;;
2766;SDS011;1391;46.742;11.636;2022-09-09T11:08:55;3.60;;;1.10;;
2766;SDS011;1391;46.742;11.636;2022-09-09T11:11:28;5.37;;;1.20;;
2766;SDS011;1391;46.742;11.636;2022-09-09T11:14:01;2.90;;;1.30;;
2766;SDS011;1391;46.742;11.636;2022-09-09T11:16:39;4.03;;;1.50;;
2766;SDS011;1391;46.742;11.636;2022-09-09T11:19:13;1.40;;;1.13;;
2766;SDS011;1391;46.742;11.636;2022-09-09T11:21:48;4.10;;;1.90;;
2766;SDS011;1391;46.742;11.636;2022-09-09T11:24:18;5.03;;;1.63;;
2766;SDS011;1391;46.742;11.636;2022-09-09T11:26:53;2.93;;;2.03;;
2766;SDS011;1391;46.742;11.636;2022-09-09T11:29:45;4.47;;;1.80;;
2766;SDS011;1391;46.742;11.636;2022-09-09T11:32:39;5.10;;;1.90;;
2766;SDS011;1391;46.742;11.636;2022-09-09T11:35:47;1.43;;;1.30;;
2766;SDS011;1391;46.742;11.636;2022-09-09T11:38:32;4.30;;;1.53;;
2766;SDS011;1391;46.742;11.636;2022-09-09T11:41:10;2.30;;;1.30;;
2766;SDS011;1391;46.742;11.636;2022-09-09T11:43:59;1.13;;;0.93;;
2766;SDS011;1391;46.742;11.636;2022-09-09T11:46:37;5.23;;;1.30;;
2766;SDS011;1391;46.742;11.636;2022-09-09T11:49:21;2.27;;;1.30;;
2766;SDS011;1391;46.742;11.636;2022-09-09T11:51:55;2.50;;;1.20;;
2766;SDS011;1391;46.742;11.636;2022-09-09T11:54:27;1.93;;;1.00;;
2766;SDS011;1391;46.742;11.636;2022-09-09T11:56:57;2.20;;;0.90;;
2766;SDS011;1391;46.742;11.636;2022-09-09T11:59:25;2.77;;;0.90;;
2766;SDS011;1391;46.742;11.636;2022-09-09T12:02:00;1.13;;;0.80;;
2766;SDS011;1391;46.742;11.636;2022-09-09T12:07:36;1.17;;;0.97;;
2766;SDS011;1391;46.742;11.636;2022-09-09T12:10:19;3.07;;;1.10;;
2766;SDS011;1391;46.742;11.636;2022-09-09T12:13:07;0.90;;;0.80;;
2766;SDS011;1391;46.742;11.636;2022-09-09T12:15:46;2.30;;;1.10;;
2766;SDS011;1391;46.742;11.636;2022-09-09T12:18:15;2.87;;;1.30;;
2766;SDS011;1391;46.742;11.636;2022-09-09T12:20:55;3.70;;;1.00;;
2766;SDS011;1391;46.742;11.636;2022-09-09T12:23:39;4.90;;;0.60;;
2766;SDS011;1391;46.742;11.636;2022-09-09T12:26:25;7.60;;;1.00;;
2766;SDS011;1391;46.742;11.636;2022-09-09T12:29:02;3.00;;;0.70;;
2766;SDS011;1391;46.742;11.636;2022-09-09T12:31:43;1.13;;;0.70;;
2766;SDS011;1391;46.742;11.636;2022-09-09T12:34:18;1.80;;;0.40;;
2766;SDS011;1391;46.742;11.636;2022-09-09T12:37:02;1.33;;;0.70;;
2766;SDS011;1391;46.742;11.636;2022-09-09T12:39:37;0.67;;;0.60;;
2766;SDS011;1391;46.742;11.636;2022-09-09T12:42:15;1.77;;;0.70;;
2766;SDS011;1391;46.742;11.636;2022-09-09T12:44:51;0.50;;;0.50;;
2766;SDS011;1391;46.742;11.636;2022-09-09T12:47:24;1.40;;;0.70;;
2766;SDS011;1391;46.742;11.636;2022-09-09T12:50:00;0.87;;;0.50;;
2766;SDS011;1391;46.742;11.636;2022-09-09T12:52:29;0.83;;;0.50;;
2766;SDS011;1391;46.742;11.636;2022-09-09T12:55:02;0.67;;;0.67;;
2766;SDS011;1391;46.742;11.636;2022-09-09T12:57:34;0.80;;;0.73;;
2766;SDS011;1391;46.742;11.636;2022-09-09T13:00:06;1.47;;;0.57;;
2766;SDS011;1391;46.742;11.636;2022-09-09T13:02:46;2.10;;;0.70;;
2766;SDS011;1391;46.742;11.636;2022-09-09T13:05:17;6.10;;;0.63;;
2766;SDS011;1391;46.742;11.636;2022-09-09T13:07:50;1.83;;;0.43;;
2766;SDS011;1391;46.742;11.636;2022-09-09T13:10:22;0.77;;;0.50;;
2766;SDS011;1391;46.742;11.636;2022-09-09T13:12:53;1.13;;;0.60;;
2766;SDS011;1391;46.742;11.636;2022-09-09T13:15:21;1.07;;;0.80;;
2766;SDS011;1391;46.742;11.636;2022-09-09T13:17:53;1.40;;;0.50;;
2766;SDS011;1391;46.742;11.636;2022-09-09T13:20:22;0.77;;;0.53;;
2766;SDS011;1391;46.742;11.636;2022-09-09T13:22:51;1.20;;;0.43;;
2766;SDS011;1391;46.742;11.636;2022-09-09T13:25:23;0.97;;;0.47;;
2766;SDS011;1391;46.742;11.636;2022-09-09T13:27:55;0.60;;;0.40;;
2766;SDS011;1391;46.742;11.636;2022-09-09T13:30:26;1.83;;;0.70;;
2766;SDS011;1391;46.742;11.636;2022-09-09T13:33:20;0.83;;;0.60;;
2766;SDS011;1391;46.742;11.636;2022-09-09T13:35:49;0.83;;;0.50;;
2766;SDS011;1391;46.742;11.636;2022-09-09T13:38:20;1.23;;;0.60;;
2766;SDS011;1391;46.742;11.636;2022-09-09T13:40:57;0.50;;;0.43;;
2766;SDS011;1391;46.742;11.636;2022-09-09T13:43:28;1.03;;;0.50;;
2766;SDS011;1391;46.742;11.636;2022-09-09T13:45:59;0.73;;;0.73;;
2766;SDS011;1391;46.742;11.636;2022-09-09T13:48:28;1.17;;;0.40;;
2766;SDS011;1391;46.742;11.636;2022-09-09T13:50:57;0.93;;;0.50;;
2766;SDS011;1391;46.742;11.636;2022-09-09T13:53:28;2.47;;;0.60;;
2766;SDS011;1391;46.742;11.636;2022-09-09T13:55:55;2.53;;;0.60;;
2766;SDS011;1391;46.742;11.636;2022-09-09T13:58:26;0.47;;;0.47;;
2766;SDS011;1391;46.742;11.636;2022-09-09T14:00:54;0.30;;;0.30;;
2766;SDS011;1391;46.742;11.636;2022-09-09T14:03:22;0.30;;;0.30;;
2766;SDS011;1391;46.742;11.636;2022-09-09T14:05:49;1.03;;;0.50;;
2766;SDS011;1391;46.742;11.636;2022-09-09T14:08:21;0.40;;;0.40;;
2766;SDS011;1391;46.742;11.636;2022-09-09T14:10:51;0.43;;;0.40;;
2766;SDS011;1391;46.742;11.636;2022-09-09T14:13:24;0.40;;;0.40;;
2766;SDS011;1391;46.742;11.636;2022-09-09T14:15:51;0.70;;;0.70;;
2766;SDS011;1391;46.742;11.636;2022-09-09T14:18:19;1.47;;;0.60;;
2766;SDS011;1391;46.742;11.636;2022-09-09T14:20:47;1.67;;;0.70;;
2766;SDS011;1391;46.742;11.636;2022-09-09T14:23:15;1.97;;;0.63;;
2766;SDS011;1391;46.742;11.636;2022-09-09T14:25:44;1.13;;;0.60;;
2766;SDS011;1391;46.742;11.636;2022-09-09T14:28:12;1.70;;;0.50;;
2766;SDS011;1391;46.742;11.636;2022-09-09T14:30:42;0.97;;;0.60;;
2766;SDS011;1391;46.742;11.636;2022-09-09T14:33:11;1.93;;;0.50;;
2766;SDS011;1391;46.742;11.636;2022-09-09T14:35:40;0.27;;;0.27;;
2766;SDS011;1391;46.742;11.636;2022-09-09T14:38:09;2.50;;;0.30;;
2766;SDS011;1391;46.742;11.636;2022-09-09T14:40:37;1.70;;;0.70;;
2766;SDS011;1391;46.742;11.636;2022-09-09T14:43:05;2.30;;;0.50;;
2766;SDS011;1391;46.742;11.636;2022-09-09T14:45:37;3.93;;;0.97;;
2766;SDS011;1391;46.742;11.636;2022-09-09T14:48:06;0.60;;;0.60;;
2766;SDS011;1391;46.742;11.636;2022-09-09T14:50:34;4.07;;;0.60;;
2766;SDS011;1391;46.742;11.636;2022-09-09T14:53:05;1.47;;;0.60;;
2766;SDS011;1391;46.742;11.636;2022-09-09T14:55:33;4.23;;;0.90;;
2766;SDS011;1391;46.742;11.636;2022-09-09T14:58:03;2.23;;;0.70;;
2766;SDS011;1391;46.742;11.636;2022-09-09T15:00:31;0.37;;;0.37;;
2766;SDS011;1391;46.742;11.636;2022-09-09T15:02:59;3.57;;;0.70;;
2766;SDS011;1391;46.742;11.636;2022-09-09T15:05:27;1.43;;;0.90;;
2766;SDS011;1391;46.742;11.636;2022-09-09T15:07:56;2.10;;;0.53;;
2766;SDS011;1391;46.742;11.636;2022-09-09T15:10:24;0.50;;;0.50;;
2766;SDS011;1391;46.742;11.636;2022-09-09T15:12:52;1.07;;;0.57;;
2766;SDS011;1391;46.742;11.636;2022-09-09T15:15:20;1.60;;;0.50;;
2766;SDS011;1391;46.742;11.636;2022-09-09T15:17:47;0.90;;;0.40;;
2766;SDS011;1391;46.742;11.636;2022-09-09T15:20:14;1.80;;;0.53;;
2766;SDS011;1391;46.742;11.636;2022-09-09T15:22:43;0.53;;;0.30;;
2766;SDS011;1391;46.742;11.636;2022-09-09T15:25:11;0.30;;;0.30;;
2766;SDS011;1391;46.742;11.636;2022-09-09T15:27:39;0.30;;;0.30;;
2766;SDS011;1391;46.742;11.636;2022-09-09T15:30:06;0.40;;;0.40;;
2766;SDS011;1391;46.742;11.636;2022-09-09T15:32:35;0.70;;;0.30;;
2766;SDS011;1391;46.742;11.636;2022-09-09T15:35:03;2.67;;;0.43;;
2766;SDS011;1391;46.742;11.636;2022-09-09T15:37:33;1.67;;;0.60;;
2766;SDS011;1391;46.742;11.636;2022-09-09T15:40:02;0.93;;;0.50;;
2766;SDS011;1391;46.742;11.636;2022-09-09T15:42:29;2.17;;;0.70;;
2766;SDS011;1391;46.742;11.636;2022-09-09T15:45:07;0.80;;;0.60;;
2766;SDS011;1391;46.742;11.636;2022-09-09T15:47:36;0.60;;;0.60;;
2766;SDS011;1391;46.742;11.636;2022-09-09T15:50:04;0.60;;;0.60;;
2766;SDS011;1391;46.742;11.636;2022-09-09T15:52:32;1.47;;;0.57;;
2766;SDS011;1391;46.742;11.636;2022-09-09T15:55:00;0.77;;;0.40;;
2766;SDS011;1391;46.742;11.636;2022-09-09T15:57:29;0.30;;;0.30;;
2766;SDS011;1391;46.742;11.636;2022-09-09T15:59:57;2.43;;;0.57;;
2766;SDS011;1391;46.742;11.636;2022-09-09T16:02:25;0.27;;;0.27;;
2766;SDS011;1391;46.742;11.636;2022-09-09T16:04:52;0.60;;;0.60;;
2766;SDS011;1391;46.742;11.636;2022-09-09T16:07:20;1.30;;;0.40;;
2766;SDS011;1391;46.742;11.636;2022-09-09T16:09:47;0.30;;;0.30;;